Colorado Springs, CO (80941)

1:45 AM MDT on April 21, 2015 (GMT -0600)
Palmer Park | | Change Station
CLOSE
Current Station
Personal Weather Station
Location: Colorado Springs, CO
Elevation: 6381 ft
Nearby Weather Stations

Elev 6381 ft 38.87 °N, 104.77 °W | Updated 6 minutes ago

Clear
Clear
35.2 °F
Feels Like 35 °F
N
1.1
Wind Variable Wind from NNW

Today
High -- | Low -- °F
--% Chance of Precip.
Yesterday
High -- | Low -- °F
Precip. -- in
6:14 AM 7:41 PM
Waxing Crescent, 9% visible
Pressure 29.96 in
Visibility 10.0 miles
Clouds Clear
Windchill 35 °F
Dew Point 33 °F
Humidity 91%
Rainfall 0.00 in
Snow Depth Not available.
UV 0 out of 12
Pollen 7.80 out of 12
Air Quality Not available.
Flu Activity Local Activity
METAR KCOS 210654Z 09006KT 10SM CLR 03/00 A3000 RMK AO2 SLP145 T00330000 401170006

More Conditions Fewer Conditions

Pressure 29.96 in
Visibility 10.0 miles
Clouds Clear
Windchill 35 °F
Dew Point 33 °F
Humidity 91%
Rainfall 0.00 in
Snow Depth Not available.
UV 0 out of 12
Pollen 7.80 out of 12
Air Quality Not available.
Flu Activity Local Activity
METAR KCOS 210654Z 09006KT 10SM CLR 03/00 A3000 RMK AO2 SLP145 T00330000 401170006

More Conditions Fewer Conditions

10-Day Weather Forecast

Almanac

Astronomy

Apr. 21, 2015 Rise Set
Actual Time
Civil Twilight
Nautical Twilight
Astronomical Twilight
Moon
Length of Visible Light
Length of Day
Tomorrow will be .
, % of the Moon is Illuminated

Today's Extremes

State Highs State Lows

Community

WunderPhotos

Upload Photos

1,815,324 photos uploaded!

WunderBlogs® & News

Nearby

Air Quality

  Air Quality AQ Index Pollutant
Not available.

Snow Depth

Station Depth Elevation

Earthquake Activity

City Distance Mag. Time & Date
Minimum magnitude displayed is 2.5.

Coastal Water Temperatures

Place Temperature

Stations

Nearby Weather Stations

Station Location Temp. Windchill Dew Point Humidity Wind Precip. Elev Updated Type